sensor_id;sensor_type;location;lat;lon;timestamp;P1;durP1;ratioP1;P2;durP2;ratioP2
21905;SDS011;11117;48.644;9.006;2022-08-21T00:02:00;3.80;;;2.53;;
21905;SDS011;11117;48.644;9.006;2022-08-21T00:04:25;7.67;;;2.80;;
21905;SDS011;11117;48.644;9.006;2022-08-21T00:06:51;6.97;;;2.70;;
21905;SDS011;11117;48.644;9.006;2022-08-21T00:09:17;5.20;;;2.77;;
21905;SDS011;11117;48.644;9.006;2022-08-21T00:11:44;9.93;;;2.90;;
21905;SDS011;11117;48.644;9.006;2022-08-21T00:14:10;7.37;;;3.10;;
21905;SDS011;11117;48.644;9.006;2022-08-21T00:16:37;5.20;;;2.90;;
21905;SDS011;11117;48.644;9.006;2022-08-21T00:19:06;6.00;;;2.83;;
21905;SDS011;11117;48.644;9.006;2022-08-21T00:21:35;6.57;;;2.90;;
21905;SDS011;11117;48.644;9.006;2022-08-21T00:24:01;5.10;;;2.80;;
21905;SDS011;11117;48.644;9.006;2022-08-21T00:26:27;6.97;;;2.80;;
21905;SDS011;11117;48.644;9.006;2022-08-21T00:28:53;4.80;;;2.70;;
21905;SDS011;11117;48.644;9.006;2022-08-21T00:31:18;5.50;;;2.97;;
21905;SDS011;11117;48.644;9.006;2022-08-21T00:33:44;8.17;;;3.27;;
21905;SDS011;11117;48.644;9.006;2022-08-21T00:36:10;5.83;;;3.00;;
21905;SDS011;11117;48.644;9.006;2022-08-21T00:38:37;5.50;;;3.10;;
21905;SDS011;11117;48.644;9.006;2022-08-21T00:41:03;4.87;;;2.90;;
21905;SDS011;11117;48.644;9.006;2022-08-21T00:43:31;7.40;;;3.60;;
21905;SDS011;11117;48.644;9.006;2022-08-21T00:45:59;4.27;;;3.10;;
21905;SDS011;11117;48.644;9.006;2022-08-21T00:48:25;6.43;;;3.03;;
21905;SDS011;11117;48.644;9.006;2022-08-21T00:53:29;5.10;;;3.10;;
21905;SDS011;11117;48.644;9.006;2022-08-21T00:55:56;7.87;;;3.13;;
21905;SDS011;11117;48.644;9.006;2022-08-21T00:58:23;5.60;;;3.00;;
21905;SDS011;11117;48.644;9.006;2022-08-21T01:00:49;6.60;;;3.53;;
21905;SDS011;11117;48.644;9.006;2022-08-21T01:03:19;4.87;;;3.53;;
21905;SDS011;11117;48.644;9.006;2022-08-21T01:05:47;4.23;;;3.20;;
21905;SDS011;11117;48.644;9.006;2022-08-21T01:08:13;7.83;;;3.70;;
21905;SDS011;11117;48.644;9.006;2022-08-21T01:10:42;6.80;;;3.60;;
21905;SDS011;11117;48.644;9.006;2022-08-21T01:13:08;5.70;;;3.50;;
21905;SDS011;11117;48.644;9.006;2022-08-21T01:15:37;6.57;;;3.50;;
21905;SDS011;11117;48.644;9.006;2022-08-21T01:18:07;6.30;;;3.17;;
21905;SDS011;11117;48.644;9.006;2022-08-21T01:20:35;9.30;;;3.60;;
21905;SDS011;11117;48.644;9.006;2022-08-21T01:23:02;8.40;;;3.33;;
21905;SDS011;11117;48.644;9.006;2022-08-21T01:25:28;5.87;;;3.90;;
21905;SDS011;11117;48.644;9.006;2022-08-21T01:27:54;7.20;;;3.10;;
21905;SDS011;11117;48.644;9.006;2022-08-21T01:30:22;5.83;;;3.47;;
21905;SDS011;11117;48.644;9.006;2022-08-21T01:32:49;6.60;;;3.60;;
21905;SDS011;11117;48.644;9.006;2022-08-21T01:35:16;7.37;;;3.50;;
21905;SDS011;11117;48.644;9.006;2022-08-21T01:37:44;4.80;;;3.37;;
21905;SDS011;11117;48.644;9.006;2022-08-21T01:40:10;5.83;;;3.47;;
21905;SDS011;11117;48.644;9.006;2022-08-21T01:42:39;8.60;;;3.80;;
21905;SDS011;11117;48.644;9.006;2022-08-21T01:45:06;7.03;;;3.60;;
21905;SDS011;11117;48.644;9.006;2022-08-21T01:47:32;6.33;;;3.27;;
21905;SDS011;11117;48.644;9.006;2022-08-21T01:49:58;8.80;;;3.80;;
21905;SDS011;11117;48.644;9.006;2022-08-21T01:52:24;7.10;;;3.50;;
21905;SDS011;11117;48.644;9.006;2022-08-21T01:54:50;6.37;;;3.63;;
21905;SDS011;11117;48.644;9.006;2022-08-21T01:57:15;4.83;;;3.40;;
21905;SDS011;11117;48.644;9.006;2022-08-21T01:59:41;5.40;;;3.63;;
21905;SDS011;11117;48.644;9.006;2022-08-21T02:02:07;6.80;;;3.87;;
21905;SDS011;11117;48.644;9.006;2022-08-21T02:04:32;7.20;;;3.57;;
21905;SDS011;11117;48.644;9.006;2022-08-21T02:06:59;8.07;;;3.80;;
21905;SDS011;11117;48.644;9.006;2022-08-21T02:09:25;4.73;;;3.47;;
21905;SDS011;11117;48.644;9.006;2022-08-21T02:11:51;5.63;;;3.60;;
21905;SDS011;11117;48.644;9.006;2022-08-21T02:14:17;4.93;;;3.60;;
21905;SDS011;11117;48.644;9.006;2022-08-21T02:16:43;6.87;;;4.43;;
21905;SDS011;11117;48.644;9.006;2022-08-21T02:19:10;5.73;;;3.67;;
21905;SDS011;11117;48.644;9.006;2022-08-21T02:21:38;5.93;;;3.80;;
21905;SDS011;11117;48.644;9.006;2022-08-21T02:24:04;7.70;;;4.03;;
21905;SDS011;11117;48.644;9.006;2022-08-21T02:26:30;6.13;;;4.07;;
21905;SDS011;11117;48.644;9.006;2022-08-21T02:28:56;7.03;;;3.73;;
21905;SDS011;11117;48.644;9.006;2022-08-21T02:31:21;7.10;;;4.00;;
21905;SDS011;11117;48.644;9.006;2022-08-21T02:33:47;9.53;;;4.30;;
21905;SDS011;11117;48.644;9.006;2022-08-21T02:36:13;6.97;;;3.90;;
21905;SDS011;11117;48.644;9.006;2022-08-21T02:38:40;9.33;;;4.60;;
21905;SDS011;11117;48.644;9.006;2022-08-21T02:41:07;8.13;;;4.50;;
21905;SDS011;11117;48.644;9.006;2022-08-21T02:43:38;11.37;;;4.20;;
21905;SDS011;11117;48.644;9.006;2022-08-21T02:46:04;8.50;;;4.10;;
21905;SDS011;11117;48.644;9.006;2022-08-21T02:48:32;10.87;;;4.40;;
21905;SDS011;11117;48.644;9.006;2022-08-21T02:51:02;10.07;;;4.13;;
21905;SDS011;11117;48.644;9.006;2022-08-21T02:53:30;9.13;;;4.50;;
21905;SDS011;11117;48.644;9.006;2022-08-21T02:55:57;6.97;;;3.90;;
21905;SDS011;11117;48.644;9.006;2022-08-21T02:58:25;7.20;;;4.20;;
21905;SDS011;11117;48.644;9.006;2022-08-21T03:00:53;9.00;;;4.60;;
21905;SDS011;11117;48.644;9.006;2022-08-21T03:03:19;8.10;;;4.70;;
21905;SDS011;11117;48.644;9.006;2022-08-21T03:05:45;8.17;;;4.30;;
21905;SDS011;11117;48.644;9.006;2022-08-21T03:08:12;7.80;;;4.17;;
21905;SDS011;11117;48.644;9.006;2022-08-21T03:10:40;8.37;;;4.63;;
21905;SDS011;11117;48.644;9.006;2022-08-21T03:13:11;9.83;;;4.77;;
21905;SDS011;11117;48.644;9.006;2022-08-21T03:15:38;7.70;;;4.70;;
21905;SDS011;11117;48.644;9.006;2022-08-21T03:18:04;7.80;;;4.80;;
21905;SDS011;11117;48.644;9.006;2022-08-21T03:20:30;9.37;;;4.70;;
21905;SDS011;11117;48.644;9.006;2022-08-21T03:22:56;7.37;;;4.70;;
21905;SDS011;11117;48.644;9.006;2022-08-21T03:25:23;6.60;;;4.67;;
21905;SDS011;11117;48.644;9.006;2022-08-21T03:27:49;9.60;;;5.17;;
21905;SDS011;11117;48.644;9.006;2022-08-21T03:30:16;8.47;;;4.30;;
21905;SDS011;11117;48.644;9.006;2022-08-21T03:32:43;6.73;;;4.30;;
21905;SDS011;11117;48.644;9.006;2022-08-21T03:35:08;7.20;;;4.90;;
21905;SDS011;11117;48.644;9.006;2022-08-21T03:37:34;7.50;;;4.50;;
21905;SDS011;11117;48.644;9.006;2022-08-21T03:40:02;5.60;;;4.60;;
21905;SDS011;11117;48.644;9.006;2022-08-21T03:42:29;8.90;;;4.80;;
21905;SDS011;11117;48.644;9.006;2022-08-21T03:44:54;8.10;;;4.10;;
21905;SDS011;11117;48.644;9.006;2022-08-21T03:47:20;9.53;;;4.60;;
21905;SDS011;11117;48.644;9.006;2022-08-21T03:49:45;9.40;;;4.77;;
21905;SDS011;11117;48.644;9.006;2022-08-21T03:52:11;8.03;;;4.77;;
21905;SDS011;11117;48.644;9.006;2022-08-21T03:54:37;7.67;;;4.70;;
21905;SDS011;11117;48.644;9.006;2022-08-21T03:57:02;8.43;;;4.63;;
21905;SDS011;11117;48.644;9.006;2022-08-21T03:59:28;6.93;;;4.70;;
21905;SDS011;11117;48.644;9.006;2022-08-21T04:01:54;6.50;;;4.80;;
21905;SDS011;11117;48.644;9.006;2022-08-21T04:04:21;8.27;;;4.87;;
21905;SDS011;11117;48.644;9.006;2022-08-21T04:06:47;8.80;;;4.83;;
21905;SDS011;11117;48.644;9.006;2022-08-21T04:09:13;9.03;;;5.43;;
21905;SDS011;11117;48.644;9.006;2022-08-21T04:11:38;6.83;;;4.90;;
21905;SDS011;11117;48.644;9.006;2022-08-21T04:14:04;7.83;;;4.93;;
21905;SDS011;11117;48.644;9.006;2022-08-21T04:16:29;7.97;;;5.53;;
21905;SDS011;11117;48.644;9.006;2022-08-21T04:18:55;7.57;;;4.90;;
21905;SDS011;11117;48.644;9.006;2022-08-21T04:21:21;8.20;;;4.97;;
21905;SDS011;11117;48.644;9.006;2022-08-21T04:23:48;6.80;;;4.70;;
21905;SDS011;11117;48.644;9.006;2022-08-21T04:26:14;6.67;;;4.67;;
21905;SDS011;11117;48.644;9.006;2022-08-21T04:28:39;11.13;;;5.47;;
21905;SDS011;11117;48.644;9.006;2022-08-21T04:31:05;6.27;;;4.80;;
21905;SDS011;11117;48.644;9.006;2022-08-21T04:33:31;8.40;;;5.30;;
21905;SDS011;11117;48.644;9.006;2022-08-21T04:35:56;5.90;;;5.10;;
21905;SDS011;11117;48.644;9.006;2022-08-21T04:38:22;9.40;;;5.00;;
21905;SDS011;11117;48.644;9.006;2022-08-21T04:40:48;8.27;;;5.10;;
21905;SDS011;11117;48.644;9.006;2022-08-21T04:43:14;6.73;;;4.60;;
21905;SDS011;11117;48.644;9.006;2022-08-21T04:45:42;7.60;;;5.10;;
21905;SDS011;11117;48.644;9.006;2022-08-21T04:48:11;7.70;;;5.03;;
21905;SDS011;11117;48.644;9.006;2022-08-21T04:50:50;8.10;;;4.87;;
21905;SDS011;11117;48.644;9.006;2022-08-21T04:53:35;6.00;;;4.53;;
21905;SDS011;11117;48.644;9.006;2022-08-21T04:58:57;6.77;;;4.87;;
21905;SDS011;11117;48.644;9.006;2022-08-21T05:01:27;6.57;;;4.70;;
21905;SDS011;11117;48.644;9.006;2022-08-21T05:03:55;5.93;;;4.43;;
21905;SDS011;11117;48.644;9.006;2022-08-21T05:06:22;8.80;;;4.47;;
21905;SDS011;11117;48.644;9.006;2022-08-21T05:08:49;5.83;;;4.87;;
21905;SDS011;11117;48.644;9.006;2022-08-21T05:11:18;7.67;;;4.70;;
21905;SDS011;11117;48.644;9.006;2022-08-21T05:13:44;7.17;;;4.67;;
21905;SDS011;11117;48.644;9.006;2022-08-21T05:16:09;10.13;;;4.97;;
21905;SDS011;11117;48.644;9.006;2022-08-21T05:18:35;6.83;;;4.40;;
21905;SDS011;11117;48.644;9.006;2022-08-21T05:21:00;5.50;;;3.83;;
21905;SDS011;11117;48.644;9.006;2022-08-21T05:23:26;7.30;;;4.40;;
21905;SDS011;11117;48.644;9.006;2022-08-21T05:25:52;6.63;;;4.43;;
21905;SDS011;11117;48.644;9.006;2022-08-21T05:28:18;8.47;;;4.67;;
21905;SDS011;11117;48.644;9.006;2022-08-21T05:30:44;7.00;;;4.37;;
21905;SDS011;11117;48.644;9.006;2022-08-21T05:33:10;8.30;;;4.23;;
21905;SDS011;11117;48.644;9.006;2022-08-21T05:35:36;5.70;;;4.23;;
21905;SDS011;11117;48.644;9.006;2022-08-21T05:38:03;5.47;;;4.27;;
21905;SDS011;11117;48.644;9.006;2022-08-21T05:40:30;5.27;;;3.73;;
21905;SDS011;11117;48.644;9.006;2022-08-21T05:42:56;6.47;;;3.90;;
21905;SDS011;11117;48.644;9.006;2022-08-21T05:45:23;6.57;;;3.77;;
21905;SDS011;11117;48.644;9.006;2022-08-21T05:47:54;9.00;;;3.80;;
21905;SDS011;11117;48.644;9.006;2022-08-21T05:50:19;6.23;;;3.63;;
21905;SDS011;11117;48.644;9.006;2022-08-21T05:52:45;11.33;;;3.73;;
21905;SDS011;11117;48.644;9.006;2022-08-21T05:55:11;5.37;;;3.70;;
21905;SDS011;11117;48.644;9.006;2022-08-21T05:57:37;5.80;;;3.87;;
21905;SDS011;11117;48.644;9.006;2022-08-21T06:00:03;7.50;;;4.03;;
21905;SDS011;11117;48.644;9.006;2022-08-21T06:02:29;6.60;;;3.43;;
21905;SDS011;11117;48.644;9.006;2022-08-21T06:04:55;5.50;;;3.87;;
21905;SDS011;11117;48.644;9.006;2022-08-21T06:07:21;7.33;;;3.70;;
21905;SDS011;11117;48.644;9.006;2022-08-21T06:09:50;8.07;;;4.10;;
21905;SDS011;11117;48.644;9.006;2022-08-21T06:12:15;6.43;;;3.87;;
21905;SDS011;11117;48.644;9.006;2022-08-21T06:14:41;7.03;;;4.07;;
21905;SDS011;11117;48.644;9.006;2022-08-21T06:17:08;5.77;;;3.53;;
21905;SDS011;11117;48.644;9.006;2022-08-21T06:19:36;6.50;;;3.60;;
21905;SDS011;11117;48.644;9.006;2022-08-21T06:22:02;7.13;;;3.27;;
21905;SDS011;11117;48.644;9.006;2022-08-21T06:24:28;5.83;;;3.50;;
21905;SDS011;11117;48.644;9.006;2022-08-21T06:26:54;6.27;;;3.13;;
21905;SDS011;11117;48.644;9.006;2022-08-21T06:29:20;6.70;;;3.40;;
21905;SDS011;11117;48.644;9.006;2022-08-21T06:31:47;7.20;;;3.80;;
21905;SDS011;11117;48.644;9.006;2022-08-21T06:34:13;4.80;;;3.70;;
21905;SDS011;11117;48.644;9.006;2022-08-21T06:36:39;7.80;;;3.40;;
21905;SDS011;11117;48.644;9.006;2022-08-21T06:39:05;9.13;;;3.90;;
21905;SDS011;11117;48.644;9.006;2022-08-21T06:41:31;10.77;;;3.60;;
21905;SDS011;11117;48.644;9.006;2022-08-21T06:43:57;6.70;;;3.77;;
21905;SDS011;11117;48.644;9.006;2022-08-21T06:46:26;6.90;;;3.50;;
21905;SDS011;11117;48.644;9.006;2022-08-21T06:48:54;5.90;;;3.40;;
21905;SDS011;11117;48.644;9.006;2022-08-21T06:51:20;5.77;;;3.20;;
21905;SDS011;11117;48.644;9.006;2022-08-21T06:53:46;5.25;;;3.47;;
21905;SDS011;11117;48.644;9.006;2022-08-21T06:56:11;7.15;;;3.20;;
21905;SDS011;11117;48.644;9.006;2022-08-21T06:58:37;6.07;;;3.08;;
21905;SDS011;11117;48.644;9.006;2022-08-21T07:01:03;6.43;;;3.30;;
21905;SDS011;11117;48.644;9.006;2022-08-21T07:03:30;7.93;;;3.13;;
21905;SDS011;11117;48.644;9.006;2022-08-21T07:05:57;5.93;;;3.20;;
21905;SDS011;11117;48.644;9.006;2022-08-21T07:08:24;5.45;;;3.10;;
21905;SDS011;11117;48.644;9.006;2022-08-21T07:10:50;8.35;;;3.50;;
21905;SDS011;11117;48.644;9.006;2022-08-21T07:13:17;13.30;;;3.60;;
21905;SDS011;11117;48.644;9.006;2022-08-21T07:15:43;7.70;;;3.50;;
21905;SDS011;11117;48.644;9.006;2022-08-21T07:18:09;7.75;;;3.83;;
21905;SDS011;11117;48.644;9.006;2022-08-21T07:20:35;8.57;;;3.35;;
21905;SDS011;11117;48.644;9.006;2022-08-21T07:23:02;8.57;;;3.22;;
21905;SDS011;11117;48.644;9.006;2022-08-21T07:25:31;9.07;;;3.55;;
21905;SDS011;11117;48.644;9.006;2022-08-21T07:27:56;6.47;;;3.05;;
21905;SDS011;11117;48.644;9.006;2022-08-21T07:30:22;6.97;;;3.28;;
21905;SDS011;11117;48.644;9.006;2022-08-21T07:32:48;7.85;;;3.35;;
21905;SDS011;11117;48.644;9.006;2022-08-21T07:35:14;7.68;;;3.22;;
21905;SDS011;11117;48.644;9.006;2022-08-21T07:37:41;6.78;;;3.30;;
21905;SDS011;11117;48.644;9.006;2022-08-21T07:40:07;8.30;;;3.40;;
21905;SDS011;11117;48.644;9.006;2022-08-21T07:42:33;7.30;;;3.00;;
21905;SDS011;11117;48.644;9.006;2022-08-21T07:44:58;7.68;;;3.50;;
21905;SDS011;11117;48.644;9.006;2022-08-21T07:47:24;7.25;;;3.33;;
21905;SDS011;11117;48.644;9.006;2022-08-21T07:49:50;5.93;;;3.20;;
21905;SDS011;11117;48.644;9.006;2022-08-21T07:52:15;6.38;;;3.08;;
21905;SDS011;11117;48.644;9.006;2022-08-21T07:54:41;10.07;;;3.58;;
21905;SDS011;11117;48.644;9.006;2022-08-21T07:57:06;6.50;;;3.20;;
21905;SDS011;11117;48.644;9.006;2022-08-21T07:59:32;8.75;;;3.30;;
21905;SDS011;11117;48.644;9.006;2022-08-21T08:01:57;7.90;;;3.47;;
21905;SDS011;11117;48.644;9.006;2022-08-21T08:04:23;8.07;;;3.20;;
21905;SDS011;11117;48.644;9.006;2022-08-21T08:06:49;8.90;;;3.67;;
21905;SDS011;11117;48.644;9.006;2022-08-21T08:09:15;7.47;;;3.95;;
21905;SDS011;11117;48.644;9.006;2022-08-21T08:11:41;5.22;;;3.17;;
21905;SDS011;11117;48.644;9.006;2022-08-21T08:14:07;8.05;;;3.08;;
21905;SDS011;11117;48.644;9.006;2022-08-21T08:16:32;4.93;;;2.70;;
21905;SDS011;11117;48.644;9.006;2022-08-21T08:18:58;8.98;;;3.20;;
21905;SDS011;11117;48.644;9.006;2022-08-21T08:21:23;8.98;;;3.33;;
21905;SDS011;11117;48.644;9.006;2022-08-21T08:23:49;6.82;;;3.20;;
21905;SDS011;11117;48.644;9.006;2022-08-21T08:26:15;6.80;;;2.85;;
21905;SDS011;11117;48.644;9.006;2022-08-21T08:28:40;8.18;;;2.97;;
21905;SDS011;11117;48.644;9.006;2022-08-21T08:31:06;8.05;;;3.30;;
21905;SDS011;11117;48.644;9.006;2022-08-21T08:33:31;6.40;;;3.05;;
21905;SDS011;11117;48.644;9.006;2022-08-21T08:35:57;5.50;;;3.05;;
21905;SDS011;11117;48.644;9.006;2022-08-21T08:38:23;7.03;;;3.17;;
21905;SDS011;11117;48.644;9.006;2022-08-21T08:43:35;6.97;;;3.22;;
21905;SDS011;11117;48.644;9.006;2022-08-21T08:46:02;5.90;;;3.08;;
21905;SDS011;11117;48.644;9.006;2022-08-21T08:48:36;7.88;;;3.13;;
21905;SDS011;11117;48.644;9.006;2022-08-21T08:51:08;8.45;;;3.10;;
21905;SDS011;11117;48.644;9.006;2022-08-21T08:54:00;5.75;;;2.88;;
21905;SDS011;11117;48.644;9.006;2022-08-21T08:56:30;6.32;;;2.60;;
21905;SDS011;11117;48.644;9.006;2022-08-21T08:59:00;6.45;;;3.10;;
21905;SDS011;11117;48.644;9.006;2022-08-21T09:01:56;8.07;;;3.00;;
21905;SDS011;11117;48.644;9.006;2022-08-21T09:04:23;7.20;;;3.30;;
21905;SDS011;11117;48.644;9.006;2022-08-21T09:09:58;6.90;;;2.92;;
21905;SDS011;11117;48.644;9.006;2022-08-21T09:12:50;7.68;;;3.00;;
21905;SDS011;11117;48.644;9.006;2022-08-21T09:15:27;6.00;;;3.03;;
21905;SDS011;11117;48.644;9.006;2022-08-21T09:18:10;9.90;;;3.05;;
21905;SDS011;11117;48.644;9.006;2022-08-21T09:26:13;4.78;;;2.85;;
21905;SDS011;11117;48.644;9.006;2022-08-21T09:28:44;10.00;;;3.30;;
21905;SDS011;11117;48.644;9.006;2022-08-21T09:31:22;6.53;;;3.20;;
21905;SDS011;11117;48.644;9.006;2022-08-21T09:33:47;6.13;;;2.80;;
21905;SDS011;11117;48.644;9.006;2022-08-21T09:36:22;6.65;;;3.05;;
21905;SDS011;11117;48.644;9.006;2022-08-21T09:39:00;6.50;;;2.67;;
21905;SDS011;11117;48.644;9.006;2022-08-21T09:41:27;6.78;;;2.75;;
21905;SDS011;11117;48.644;9.006;2022-08-21T09:43:54;4.90;;;2.60;;
21905;SDS011;11117;48.644;9.006;2022-08-21T09:46:21;5.72;;;2.65;;
21905;SDS011;11117;48.644;9.006;2022-08-21T09:48:52;6.32;;;2.60;;
21905;SDS011;11117;48.644;9.006;2022-08-21T09:51:21;7.10;;;2.72;;
21905;SDS011;11117;48.644;9.006;2022-08-21T09:53:51;5.03;;;2.40;;
21905;SDS011;11117;48.644;9.006;2022-08-21T09:56:39;10.93;;;2.70;;
21905;SDS011;11117;48.644;9.006;2022-08-21T09:59:27;9.13;;;2.70;;
21905;SDS011;11117;48.644;9.006;2022-08-21T10:01:55;5.80;;;2.17;;
21905;SDS011;11117;48.644;9.006;2022-08-21T10:04:21;8.50;;;2.55;;
21905;SDS011;11117;48.644;9.006;2022-08-21T10:06:49;7.75;;;2.67;;
21905;SDS011;11117;48.644;9.006;2022-08-21T10:09:19;4.63;;;2.20;;
21905;SDS011;11117;48.644;9.006;2022-08-21T10:12:08;7.00;;;2.65;;
21905;SDS011;11117;48.644;9.006;2022-08-21T10:15:00;6.18;;;2.40;;
21905;SDS011;11117;48.644;9.006;2022-08-21T10:20:05;5.82;;;2.60;;
21905;SDS011;11117;48.644;9.006;2022-08-21T10:23:00;4.35;;;2.33;;
21905;SDS011;11117;48.644;9.006;2022-08-21T10:25:47;6.88;;;2.72;;
21905;SDS011;11117;48.644;9.006;2022-08-21T10:29:06;8.25;;;2.90;;
21905;SDS011;11117;48.644;9.006;2022-08-21T10:42:49;6.72;;;2.50;;
21905;SDS011;11117;48.644;9.006;2022-08-21T10:45:49;3.45;;;2.10;;
21905;SDS011;11117;48.644;9.006;2022-08-21T10:51:06;7.18;;;2.40;;
21905;SDS011;11117;48.644;9.006;2022-08-21T10:56:19;5.78;;;2.50;;
21905;SDS011;11117;48.644;9.006;2022-08-21T10:58:59;5.00;;;2.40;;
21905;SDS011;11117;48.644;9.006;2022-08-21T11:01:42;4.50;;;2.33;;
21905;SDS011;11117;48.644;9.006;2022-08-21T11:04:20;5.63;;;2.38;;
21905;SDS011;11117;48.644;9.006;2022-08-21T11:07:00;10.52;;;2.72;;
21905;SDS011;11117;48.644;9.006;2022-08-21T11:09:30;5.72;;;2.42;;
21905;SDS011;11117;48.644;9.006;2022-08-21T11:11:57;7.18;;;2.90;;
21905;SDS011;11117;48.644;9.006;2022-08-21T11:17:07;5.90;;;2.50;;
21905;SDS011;11117;48.644;9.006;2022-08-21T11:19:42;3.90;;;2.20;;
21905;SDS011;11117;48.644;9.006;2022-08-21T11:22:16;5.65;;;2.65;;
21905;SDS011;11117;48.644;9.006;2022-08-21T11:25:03;4.82;;;2.10;;
21905;SDS011;11117;48.644;9.006;2022-08-21T11:28:06;5.10;;;2.42;;
21905;SDS011;11117;48.644;9.006;2022-08-21T11:30:47;9.15;;;2.83;;
21905;SDS011;11117;48.644;9.006;2022-08-21T11:36:21;5.22;;;2.20;;
21905;SDS011;11117;48.644;9.006;2022-08-21T11:47:44;6.18;;;2.22;;
21905;SDS011;11117;48.644;9.006;2022-08-21T11:50:30;4.97;;;2.30;;
21905;SDS011;11117;48.644;9.006;2022-08-21T11:53:01;8.50;;;2.40;;
21905;SDS011;11117;48.644;9.006;2022-08-21T11:58:22;3.95;;;2.20;;
21905;SDS011;11117;48.644;9.006;2022-08-21T12:00:56;4.78;;;2.10;;
21905;SDS011;11117;48.644;9.006;2022-08-21T12:03:42;5.80;;;1.98;;
21905;SDS011;11117;48.644;9.006;2022-08-21T12:06:27;7.13;;;2.05;;
21905;SDS011;11117;48.644;9.006;2022-08-21T12:09:00;3.35;;;2.10;;
21905;SDS011;11117;48.644;9.006;2022-08-21T12:11:48;4.47;;;2.00;;
21905;SDS011;11117;48.644;9.006;2022-08-21T12:14:17;5.32;;;1.90;;
21905;SDS011;11117;48.644;9.006;2022-08-21T12:16:47;2.95;;;1.88;;
21905;SDS011;11117;48.644;9.006;2022-08-21T12:19:28;5.65;;;2.17;;
21905;SDS011;11117;48.644;9.006;2022-08-21T12:24:34;4.43;;;2.38;;
21905;SDS011;11117;48.644;9.006;2022-08-21T12:30:19;4.63;;;2.60;;
21905;SDS011;11117;48.644;9.006;2022-08-21T12:32:46;7.75;;;2.40;;
21905;SDS011;11117;48.644;9.006;2022-08-21T12:35:23;6.15;;;2.95;;
21905;SDS011;11117;48.644;9.006;2022-08-21T12:40:39;6.65;;;2.60;;
21905;SDS011;11117;48.644;9.006;2022-08-21T12:43:11;5.40;;;2.30;;
21905;SDS011;11117;48.644;9.006;2022-08-21T12:45:44;4.78;;;2.30;;
21905;SDS011;11117;48.644;9.006;2022-08-21T12:48:21;4.55;;;2.38;;
21905;SDS011;11117;48.644;9.006;2022-08-21T12:50:57;5.60;;;2.40;;
21905;SDS011;11117;48.644;9.006;2022-08-21T12:53:37;4.22;;;2.20;;
21905;SDS011;11117;48.644;9.006;2022-08-21T12:56:08;3.55;;;2.25;;
21905;SDS011;11117;48.644;9.006;2022-08-21T12:58:35;4.28;;;2.30;;
21905;SDS011;11117;48.644;9.006;2022-08-21T13:01:03;5.00;;;2.38;;
21905;SDS011;11117;48.644;9.006;2022-08-21T13:03:31;3.88;;;2.40;;
21905;SDS011;11117;48.644;9.006;2022-08-21T13:06:00;5.30;;;2.28;;
21905;SDS011;11117;48.644;9.006;2022-08-21T13:08:28;5.28;;;2.28;;
21905;SDS011;11117;48.644;9.006;2022-08-21T13:10:59;4.20;;;2.50;;
21905;SDS011;11117;48.644;9.006;2022-08-21T13:13:28;5.18;;;2.60;;
21905;SDS011;11117;48.644;9.006;2022-08-21T13:16:04;4.40;;;2.60;;
21905;SDS011;11117;48.644;9.006;2022-08-21T13:18:33;4.50;;;2.30;;
21905;SDS011;11117;48.644;9.006;2022-08-21T13:21:12;3.97;;;2.38;;
21905;SDS011;11117;48.644;9.006;2022-08-21T13:23:39;12.60;;;2.65;;
21905;SDS011;11117;48.644;9.006;2022-08-21T13:26:12;4.55;;;2.67;;
21905;SDS011;11117;48.644;9.006;2022-08-21T13:28:39;4.03;;;2.10;;
21905;SDS011;11117;48.644;9.006;2022-08-21T13:31:06;4.38;;;2.70;;
21905;SDS011;11117;48.644;9.006;2022-08-21T13:33:34;3.85;;;2.42;;
21905;SDS011;11117;48.644;9.006;2022-08-21T13:38:26;5.97;;;2.45;;
21905;SDS011;11117;48.644;9.006;2022-08-21T13:40:58;5.22;;;2.65;;
21905;SDS011;11117;48.644;9.006;2022-08-21T13:43:32;5.43;;;2.30;;
21905;SDS011;11117;48.644;9.006;2022-08-21T13:46:00;4.40;;;2.20;;
21905;SDS011;11117;48.644;9.006;2022-08-21T13:48:28;5.22;;;2.90;;
21905;SDS011;11117;48.644;9.006;2022-08-21T13:50:56;6.18;;;2.28;;
21905;SDS011;11117;48.644;9.006;2022-08-21T13:53:34;4.78;;;2.60;;
21905;SDS011;11117;48.644;9.006;2022-08-21T13:56:06;6.15;;;2.70;;
21905;SDS011;11117;48.644;9.006;2022-08-21T13:58:33;4.10;;;2.40;;
21905;SDS011;11117;48.644;9.006;2022-08-21T14:03:53;4.72;;;2.53;;
21905;SDS011;11117;48.644;9.006;2022-08-21T14:06:26;4.47;;;2.38;;
21905;SDS011;11117;48.644;9.006;2022-08-21T14:09:03;4.53;;;2.30;;
21905;SDS011;11117;48.644;9.006;2022-08-21T14:11:37;4.13;;;2.20;;
21905;SDS011;11117;48.644;9.006;2022-08-21T14:14:05;5.63;;;2.50;;
21905;SDS011;11117;48.644;9.006;2022-08-21T14:17:00;5.15;;;2.42;;
21905;SDS011;11117;48.644;9.006;2022-08-21T14:19:38;4.00;;;2.40;;
21905;SDS011;11117;48.644;9.006;2022-08-21T14:25:10;4.65;;;2.40;;
21905;SDS011;11117;48.644;9.006;2022-08-21T14:27:56;4.15;;;2.63;;
21905;SDS011;11117;48.644;9.006;2022-08-21T14:30:41;3.92;;;2.17;;
21905;SDS011;11117;48.644;9.006;2022-08-21T14:33:09;5.15;;;2.28;;
21905;SDS011;11117;48.644;9.006;2022-08-21T14:35:36;5.45;;;2.28;;
21905;SDS011;11117;48.644;9.006;2022-08-21T14:38:02;6.07;;;2.33;;
21905;SDS011;11117;48.644;9.006;2022-08-21T14:40:52;7.18;;;2.42;;
21905;SDS011;11117;48.644;9.006;2022-08-21T14:43:27;3.90;;;2.30;;
21905;SDS011;11117;48.644;9.006;2022-08-21T14:45:53;5.00;;;2.53;;
21905;SDS011;11117;48.644;9.006;2022-08-21T14:48:25;3.65;;;2.60;;
21905;SDS011;11117;48.644;9.006;2022-08-21T14:50:50;6.20;;;2.60;;
21905;SDS011;11117;48.644;9.006;2022-08-21T14:53:16;7.97;;;2.95;;
21905;SDS011;11117;48.644;9.006;2022-08-21T14:55:42;5.05;;;2.70;;
21905;SDS011;11117;48.644;9.006;2022-08-21T14:58:07;4.97;;;2.65;;
21905;SDS011;11117;48.644;9.006;2022-08-21T15:00:33;6.13;;;2.58;;
21905;SDS011;11117;48.644;9.006;2022-08-21T15:02:58;5.43;;;2.60;;
21905;SDS011;11117;48.644;9.006;2022-08-21T15:05:24;5.03;;;2.63;;
21905;SDS011;11117;48.644;9.006;2022-08-21T15:07:49;6.18;;;2.50;;
21905;SDS011;11117;48.644;9.006;2022-08-21T15:10:15;4.47;;;3.10;;
21905;SDS011;11117;48.644;9.006;2022-08-21T15:12:41;4.80;;;2.47;;
21905;SDS011;11117;48.644;9.006;2022-08-21T15:15:06;5.70;;;3.00;;
21905;SDS011;11117;48.644;9.006;2022-08-21T15:17:33;6.78;;;2.60;;
21905;SDS011;11117;48.644;9.006;2022-08-21T15:19:58;4.00;;;2.40;;
21905;SDS011;11117;48.644;9.006;2022-08-21T15:22:24;7.68;;;2.60;;
21905;SDS011;11117;48.644;9.006;2022-08-21T15:24:50;6.45;;;2.60;;
21905;SDS011;11117;48.644;9.006;2022-08-21T15:27:16;6.85;;;2.70;;
21905;SDS011;11117;48.644;9.006;2022-08-21T15:29:43;5.20;;;2.40;;
21905;SDS011;11117;48.644;9.006;2022-08-21T15:32:25;3.88;;;2.40;;
21905;SDS011;11117;48.644;9.006;2022-08-21T15:34:52;7.13;;;2.80;;
21905;SDS011;11117;48.644;9.006;2022-08-21T15:37:19;5.53;;;2.67;;
21905;SDS011;11117;48.644;9.006;2022-08-21T15:39:45;6.10;;;2.80;;
21905;SDS011;11117;48.644;9.006;2022-08-21T15:42:11;4.22;;;2.60;;
21905;SDS011;11117;48.644;9.006;2022-08-21T15:44:41;4.28;;;2.50;;
21905;SDS011;11117;48.644;9.006;2022-08-21T15:47:25;6.45;;;2.60;;
21905;SDS011;11117;48.644;9.006;2022-08-21T15:49:56;6.75;;;2.50;;
21905;SDS011;11117;48.644;9.006;2022-08-21T15:52:22;7.25;;;2.70;;
21905;SDS011;11117;48.644;9.006;2022-08-21T15:54:47;5.45;;;2.50;;
21905;SDS011;11117;48.644;9.006;2022-08-21T15:57:14;6.57;;;2.53;;
21905;SDS011;11117;48.644;9.006;2022-08-21T15:59:47;5.78;;;2.95;;
21905;SDS011;11117;48.644;9.006;2022-08-21T16:02:25;4.47;;;3.30;;
21905;SDS011;11117;48.644;9.006;2022-08-21T16:04:56;4.65;;;2.60;;
21905;SDS011;11117;48.644;9.006;2022-08-21T16:07:23;4.93;;;3.15;;
21905;SDS011;11117;48.644;9.006;2022-08-21T16:09:51;7.90;;;3.67;;
21905;SDS011;11117;48.644;9.006;2022-08-21T16:12:21;9.75;;;3.05;;